Time;durP1;ratioP1;P1;durP2;ratioP2;P2;SDS_P1;SDS_P2;PMS_P1;PMS_P2;Temp;Humidity;BMP_temperature;BMP_pressure;BME280_temperature;BME280_humidity;BME280_pressure;Samples;Min_cycle;Max_cycle;Signal;HPM_P1;HPM_P2
2022/05/06 00:02:23;;;;;;;25.75;15.20;;;;;;;10.80;85.77;97904.13;4998724;28;20132;-68
2022/05/06 00:04:51;;;;;;;24.95;14.98;;;;;;;10.78;86.68;97906.25;5007144;28;20042;-71
2022/05/06 00:07:19;;;;;;;22.48;13.73;;;;;;;10.84;86.42;97912.59;5009548;28;20136;-72
2022/05/06 00:09:45;;;;;;;27.75;15.43;;;;;;;10.91;85.32;97899.72;5027257;28;20048;-71
2022/05/06 00:12:13;;;;;;;27.38;16.25;;;;;;;10.98;84.50;97904.19;5006498;28;20280;-74
2022/05/06 00:14:40;;;;;;;23.85;15.23;;;;;;;11.01;84.54;97909.09;5006372;28;20046;-67
2022/05/06 00:17:07;;;;;;;23.08;15.13;;;;;;;10.97;84.43;97900.66;4988806;28;20054;-70
2022/05/06 00:19:34;;;;;;;24.65;14.80;;;;;;;11.01;84.99;97909.09;4991094;28;20080;-73
2022/05/06 00:22:01;;;;;;;27.95;15.90;;;;;;;10.97;85.00;97906.06;5006098;28;20524;-70
2022/05/06 00:24:28;;;;;;;30.40;16.08;;;;;;;11.02;84.50;97908.06;5007668;28;20050;-69
2022/05/06 00:26:57;;;;;;;28.05;16.15;;;;;;;10.98;84.49;97904.19;5005748;28;20413;-68
2022/05/06 00:29:24;;;;;;;24.83;14.95;;;;;;;11.06;83.47;97903.81;5006683;28;20432;-67
2022/05/06 00:31:51;;;;;;;26.98;15.77;;;;;;;10.99;83.66;97897.72;5005383;28;20042;-66
2022/05/06 00:34:18;;;;;;;25.88;15.50;;;;;;;11.01;83.02;97901.81;5006586;28;20046;-70
2022/05/06 00:36:45;;;;;;;26.85;16.58;;;;;;;10.91;83.26;97907.84;4990399;28;20109;-71
2022/05/06 00:39:12;;;;;;;25.48;14.88;;;;;;;11.00;83.20;97902.06;5006498;28;20042;-69
2022/05/06 00:41:39;;;;;;;27.52;15.32;;;;;;;11.01;83.15;97896.41;5004081;28;20216;-71
2022/05/06 00:44:06;;;;;;;23.42;15.18;;;;;;;11.10;82.23;97902.25;5004670;28;20050;-74
2022/05/06 00:46:35;;;;;;;29.48;14.90;;;;;;;11.05;82.54;97900.28;5004985;28;20049;-69
2022/05/06 00:49:03;;;;;;;25.75;15.35;;;;;;;10.99;83.70;97900.41;5006487;28;20443;-70
2022/05/06 00:51:30;;;;;;;23.48;14.60;;;;;;;10.93;83.02;97902.19;5000178;28;20045;-71
2022/05/06 00:53:57;;;;;;;24.27;13.90;;;;;;;10.97;83.03;97908.78;5005957;28;20576;-67
2022/05/06 00:56:24;;;;;;;25.20;14.52;;;;;;;10.87;82.59;97901.28;4993293;28;20775;-68
2022/05/06 00:58:52;;;;;;;23.52;15.02;;;;;;;10.84;84.29;97898.22;4994746;28;20549;-68
2022/05/06 01:01:20;;;;;;;25.13;14.10;;;;;;;10.91;83.64;97897.00;4996545;28;20062;-70
2022/05/06 01:03:47;;;;;;;24.23;14.10;;;;;;;10.95;83.53;97894.66;5005171;28;20049;-69
2022/05/06 01:06:15;;;;;;;25.52;15.18;;;;;;;11.03;82.54;97896.97;5000583;28;20053;-67
2022/05/06 01:08:48;;;;;;;19.52;13.88;;;;;;;11.00;83.79;97902.06;5002954;28;20540;-73
2022/05/06 01:11:15;;;;;;;24.52;15.63;;;;;;;10.97;84.45;97907.94;4994089;28;20064;-66
2022/05/06 01:13:47;;;;;;;25.95;15.55;;;;;;;11.00;85.84;97902.88;4985622;28;20043;-72
2022/05/06 01:16:18;;;;;;;25.08;15.57;;;;;;;11.00;84.88;97902.88;4993552;28;20120;-73
2022/05/06 01:18:49;;;;;;;22.15;14.55;;;;;;;11.03;84.87;97904.28;5004517;28;20034;-69
2022/05/06 01:21:22;;;;;;;25.40;14.82;;;;;;;10.99;83.34;97901.22;4991320;28;20038;-68
2022/05/06 01:23:48;;;;;;;27.13;14.25;;;;;;;11.15;83.29;97904.22;5003691;28;20038;-72
2022/05/06 01:26:15;;;;;;;26.48;14.40;;;;;;;11.09;84.01;97906.03;5004500;28;20042;-69
2022/05/06 01:28:42;;;;;;;25.27;15.20;;;;;;;10.95;83.34;97910.94;5003427;28;20072;-66
2022/05/06 01:31:16;;;;;;;23.77;14.05;;;;;;;10.95;83.88;97905.50;4988508;28;20473;-71
2022/05/06 01:33:44;;;;;;;22.73;13.95;;;;;;;10.88;83.82;97904.81;5002113;28;20397;-68
2022/05/06 01:36:12;;;;;;;24.98;14.43;;;;;;;10.84;83.11;97909.88;4990451;28;20046;-70
2022/05/06 01:38:46;;;;;;;24.98;14.35;;;;;;;10.86;83.44;97909.63;5000269;28;20067;-68
2022/05/06 01:41:23;;;;;;;25.85;14.32;;;;;;;10.91;83.15;97910.56;4987338;28;20498;-70
2022/05/06 01:44:10;;;;;;;25.02;15.60;;;;;;;10.95;82.92;97910.94;4995057;28;20059;-67
2022/05/06 01:46:38;;;;;;;28.38;14.60;;;;;;;10.97;84.50;97910.66;4985451;28;20685;-71
2022/05/06 01:49:10;;;;;;;23.00;15.23;;;;;;;10.83;85.86;97919.06;4985916;28;20166;-70
2022/05/06 01:51:38;;;;;;;25.15;15.75;;;;;;;10.87;87.68;97916.72;5002744;28;20046;-72
2022/05/06 01:54:09;;;;;;;33.13;17.15;;;;;;;10.70;87.41;97920.19;5003925;28;20068;-67
2022/05/06 01:56:39;;;;;;;35.03;18.50;;;;;;;10.71;90.71;97912.84;5001702;28;20052;-69
2022/05/06 01:59:06;;;;;;;31.05;18.80;;;;;;;10.50;92.34;97913.25;4988456;28;20052;-69
2022/05/06 02:01:34;;;;;;;28.30;18.48;;;;;;;10.28;91.75;97923.84;4988613;28;20649;-68
2022/05/06 02:06:48;;;;;;;39.33;21.48;;;;;;;9.93;97.90;97917.38;5010037;28;20096;-71
2022/05/06 02:09:24;;;;;;;42.47;23.23;;;;;;;10.01;99.83;97917.03;5024153;28;20041;-70
2022/05/06 02:11:58;;;;;;;46.45;22.92;;;;;;;9.92;100.00;97921.16;4999217;28;20065;-71
2022/05/06 02:14:43;;;;;;;38.17;21.83;;;;;;;9.72;100.00;97908.78;4987403;28;20092;-67
2022/05/06 02:17:25;;;;;;;40.53;23.40;;;;;;;9.74;100.00;97917.47;5002778;28;20061;-69
2022/05/06 02:20:13;;;;;;;48.28;25.30;;;;;;;9.75;100.00;97918.28;4990993;28;20086;-66
2022/05/06 02:22:51;;;;;;;45.88;25.17;;;;;;;9.60;100.00;97910.63;4994499;28;20052;-70
2022/05/06 02:25:42;;;;;;;51.15;25.50;;;;;;;9.64;100.00;97909.13;4994577;28;20077;-68
2022/05/06 02:28:14;;;;;;;44.50;26.25;;;;;;;9.61;100.00;97909.56;5003340;28;20058;-71
2022/05/06 02:33:34;;;;;;;42.65;25.30;;;;;;;9.62;100.00;97913.94;4988713;28;20042;-71
2022/05/06 02:36:07;;;;;;;48.78;25.77;;;;;;;9.74;100.00;97913.97;4984070;28;20154;-68
2022/05/06 02:38:35;;;;;;;48.28;25.35;;;;;;;9.60;100.00;97916.03;4998779;28;20069;-69
2022/05/06 02:41:03;;;;;;;46.63;25.67;;;;;;;9.51;100.00;97918.25;5002379;28;20140;-72
2022/05/06 02:43:39;;;;;;;50.30;26.52;;;;;;;9.57;100.00;97914.63;4993872;28;20033;-73
2022/05/06 02:46:06;;;;;;;45.85;26.73;;;;;;;9.58;100.00;97928.97;5002320;28;20108;-66
2022/05/06 02:48:33;;;;;;;52.38;26.50;;;;;;;9.51;100.00;97926.34;5005252;28;20050;-70
2022/05/06 02:51:00;;;;;;;56.17;28.13;;;;;;;9.69;100.00;97925.47;4991600;28;20050;-68
2022/05/06 02:53:31;;;;;;;50.20;26.83;;;;;;;9.58;100.00;97924.38;5023547;28;20674;-69
2022/05/06 02:55:59;;;;;;;46.70;26.17;;;;;;;9.43;100.00;97924.81;5022587;28;20046;-73
2022/05/06 02:58:28;;;;;;;49.85;27.55;;;;;;;9.49;100.00;97917.66;5007844;28;20052;-71
2022/05/06 03:00:54;;;;;;;58.13;28.92;;;;;;;9.45;100.00;97930.81;4988659;28;20050;-65
2022/05/06 03:03:21;;;;;;;52.20;27.48;;;;;;;9.49;100.00;97928.47;5003094;28;20046;-72
2022/05/06 03:05:48;;;;;;;52.35;26.83;;;;;;;9.46;100.00;97923.53;5003764;28;20147;-68
2022/05/06 03:08:18;;;;;;;50.08;24.70;;;;;;;9.48;100.00;97927.63;5002345;28;20057;-67
2022/05/06 03:10:46;;;;;;;50.65;28.02;;;;;;;9.56;100.00;97922.97;4989019;28;20066;-69
2022/05/06 03:13:14;;;;;;;45.78;25.75;;;;;;;9.53;100.00;97918.84;4999311;28;20045;-69
2022/05/06 03:15:43;;;;;;;48.15;25.60;;;;;;;9.42;100.00;97923.16;4992910;28;20046;-68
2022/05/06 03:18:13;;;;;;;;;;;;;;;9.42;100.00;97917.75;4988804;28;20045;-72
2022/05/06 03:20:42;;;;;;;45.97;24.58;;;;;;;9.47;100.00;97915.19;4999229;28;19964;-68
2022/05/06 03:23:12;;;;;;;48.55;27.23;;;;;;;9.43;100.00;97919.41;4974449;28;20051;-71
2022/05/06 03:25:39;;;;;;;47.20;25.20;;;;;;;9.44;100.00;97910.22;4994126;28;20501;-69
2022/05/06 03:28:09;;;;;;;47.53;25.85;;;;;;;9.47;100.00;97912.47;5007067;28;20065;-67
2022/05/06 03:30:40;;;;;;;44.08;24.65;;;;;;;9.36;100.00;97915.97;4996628;28;20117;-73
2022/05/06 03:33:22;;;;;;;41.75;23.63;;;;;;;9.34;100.00;97918.94;4991830;28;20076;-66
2022/05/06 03:35:48;;;;;;;41.35;23.58;;;;;;;9.39;100.00;97922.81;4992464;28;20177;-69
2022/05/06 03:38:16;;;;;;;40.95;23.98;;;;;;;9.37;100.00;97912.22;4998881;28;20060;-72
2022/05/06 03:40:46;;;;;;;40.58;25.05;;;;;;;9.35;100.00;97915.16;4988920;28;20711;-71
2022/05/06 03:43:13;;;;;;;38.58;23.70;;;;;;;9.41;100.00;97918.81;4999402;28;20027;-69
2022/05/06 03:45:41;;;;;;;45.20;25.02;;;;;;;9.31;100.00;97919.38;4999200;28;20051;-69
2022/05/06 03:48:09;;;;;;;45.30;23.77;;;;;;;9.37;100.00;97918.44;4991574;28;20038;-70
2022/05/06 03:53:27;;;;;;;46.00;25.70;;;;;;;9.43;100.00;97930.22;4998778;28;20097;-67
2022/05/06 03:55:56;;;;;;;48.70;25.23;;;;;;;9.41;100.00;97935.03;4986735;28;20536;-66
2022/05/06 03:58:25;;;;;;;41.20;23.58;;;;;;;9.37;100.00;97936.56;4989770;28;20046;-71
2022/05/06 04:00:52;;;;;;;45.20;22.38;;;;;;;9.41;100.00;97937.75;5004769;28;20052;-70
2022/05/06 04:03:19;;;;;;;40.60;23.00;;;;;;;9.33;100.00;97932.66;4993038;28;20042;-69
2022/05/06 04:05:46;;;;;;;44.58;24.35;;;;;;;9.28;100.00;97935.25;5005255;28;20046;-67
2022/05/06 04:08:13;;;;;;;41.67;22.55;;;;;;;9.30;100.00;97936.66;5009666;28;20056;-68
2022/05/06 04:10:42;;;;;;;41.30;22.88;;;;;;;9.30;100.00;97941.22;4995780;28;20116;-70
2022/05/06 04:13:08;;;;;;;43.00;24.42;;;;;;;9.26;100.00;97937.34;4988968;28;20036;-68
2022/05/06 04:15:35;;;;;;;41.05;24.08;;;;;;;9.26;100.00;97942.75;5006724;28;20069;-68
2022/05/06 04:18:05;;;;;;;42.30;24.52;;;;;;;9.21;100.00;97943.41;5005044;28;20487;-66
2022/05/06 04:23:31;;;;;;;46.13;25.67;;;;;;;9.21;100.00;97949.66;5005209;28;20061;-71
2022/05/06 04:26:09;;;;;;;51.23;26.87;;;;;;;9.23;100.00;97950.25;4994412;28;20046;-67
2022/05/06 04:28:40;;;;;;;46.95;25.70;;;;;;;9.22;100.00;97953.19;5004638;28;20049;-68
2022/05/06 04:31:07;;;;;;;46.42;26.80;;;;;;;9.19;100.00;97956.34;5007023;28;20095;-70
2022/05/06 04:33:39;;;;;;;46.42;25.65;;;;;;;9.27;100.00;97957.88;4999768;28;20050;-71
2022/05/06 04:36:09;;;;;;;53.13;26.92;;;;;;;9.22;100.00;97961.28;5016248;28;20107;-75
2022/05/06 04:38:38;;;;;;;48.87;25.30;;;;;;;9.29;100.00;97972.81;5007498;28;20626;-68
2022/05/06 04:41:06;;;;;;;46.63;26.48;;;;;;;9.32;100.00;97972.38;5002495;28;20044;-75
2022/05/06 04:43:34;;;;;;;51.45;27.42;;;;;;;9.17;100.00;97975.47;4990148;28;20137;-69
2022/05/06 04:46:01;;;;;;;41.95;25.30;;;;;;;9.21;100.00;97971.25;5003598;28;20096;-67
2022/05/06 04:48:30;;;;;;;47.90;26.52;;;;;;;9.26;100.00;97970.59;5000697;28;20042;-69
2022/05/06 04:50:59;;;;;;;46.65;26.45;;;;;;;9.30;100.00;97979.06;4998118;28;20188;-70
2022/05/06 04:53:26;;;;;;;49.63;26.38;;;;;;;9.39;100.00;97974.97;5001183;28;20056;-66
2022/05/06 04:55:55;;;;;;;45.75;24.10;;;;;;;9.35;100.00;97971.09;5004059;28;20660;-67
2022/05/06 04:58:31;;;;;;;47.85;24.20;;;;;;;9.33;100.00;97971.31;5001286;28;20045;-68
2022/05/06 05:01:01;;;;;;;42.55;22.73;;;;;;;9.36;100.00;97980.84;5003633;28;20065;-70
2022/05/06 05:03:29;;;;;;;43.55;23.55;;;;;;;9.45;100.00;97978.66;4974811;28;20882;-66
2022/05/06 05:05:57;;;;;;;41.45;21.92;;;;;;;9.43;100.00;97980.78;4988385;28;20046;-67
2022/05/06 05:08:25;;;;;;;42.60;24.48;;;;;;;9.39;100.00;97987.69;5010295;28;20073;-70
2022/05/06 05:10:52;;;;;;;45.92;26.05;;;;;;;9.44;100.00;97982.41;5002909;28;20140;-69
2022/05/06 05:13:23;;;;;;;47.42;26.15;;;;;;;9.54;100.00;97988.06;4985509;28;20180;-68
2022/05/06 05:15:50;;;;;;;43.78;25.05;;;;;;;9.50;100.00;97982.31;4989671;28;20050;-70
2022/05/06 05:18:18;;;;;;;48.70;26.30;;;;;;;9.53;100.00;97985.59;4985825;28;20444;-67
2022/05/06 05:20:45;;;;;;;51.97;26.17;;;;;;;9.48;100.00;97987.09;4986475;28;20050;-72
2022/05/06 05:23:12;;;;;;;46.95;26.10;;;;;;;9.52;100.00;97992.91;5005054;28;20194;-66
2022/05/06 05:25:41;;;;;;;49.75;26.63;;;;;;;9.60;100.00;97989.88;5004999;28;20517;-69
2022/05/06 05:28:07;;;;;;;46.35;26.25;;;;;;;9.55;100.00;97986.22;5000632;28;20061;-74
2022/05/06 05:30:38;;;;;;;43.78;25.05;;;;;;;9.50;100.00;97989.59;5003162;28;20052;-70
2022/05/06 05:33:07;;;;;;;44.00;25.95;;;;;;;9.56;100.00;97985.16;5006065;28;20040;-68
2022/05/06 05:35:36;;;;;;;40.55;23.88;;;;;;;9.62;100.00;97990.44;5000444;28;20085;-67
2022/05/06 05:38:05;;;;;;;43.15;24.17;;;;;;;9.57;100.00;97989.50;4995438;28;20417;-68
2022/05/06 05:40:33;;;;;;;40.03;23.33;;;;;;;9.71;100.00;97990.97;5002292;28;20046;-68
2022/05/06 05:43:01;;;;;;;48.50;26.58;;;;;;;9.76;100.00;98006.47;5000119;28;20069;-68
2022/05/06 05:48:22;;;;;;;40.17;23.92;;;;;;;9.85;100.00;97993.47;5011109;28;20057;-70
2022/05/06 05:50:57;;;;;;;40.22;23.20;;;;;;;9.82;100.00;97999.31;4998053;28;20057;-70
2022/05/06 05:53:32;;;;;;;38.35;22.27;;;;;;;9.84;100.00;97997.22;4991712;28;20046;-71
2022/05/06 05:55:59;;;;;;;38.88;22.08;;;;;;;9.92;100.00;97996.06;5001531;28;20164;-69
2022/05/06 05:58:26;;;;;;;32.40;21.05;;;;;;;9.93;100.00;97997.69;5003876;28;20046;-73
2022/05/06 06:00:56;;;;;;;41.88;22.80;;;;;;;10.12;100.00;97993.88;5002526;28;20540;-72
2022/05/06 06:03:29;;;;;;;37.42;22.50;;;;;;;10.14;100.00;97999.03;5001475;28;20049;-69
2022/05/06 06:05:57;;;;;;;31.42;19.88;;;;;;;10.09;98.45;98001.59;5004151;28;20038;-70
2022/05/06 06:08:24;;;;;;;36.42;21.70;;;;;;;10.19;99.84;98004.56;5004606;28;20444;-69
2022/05/06 06:10:55;;;;;;;;;;;;;;;10.10;100.00;98006.78;5004246;28;20038;-70
2022/05/06 06:13:22;;;;;;;32.60;20.42;;;;;;;10.18;100.00;98004.81;5002640;28;19921;-69
2022/05/06 06:15:49;;;;;;;39.75;23.98;;;;;;;10.36;100.00;97991.16;5002872;28;20042;-70
2022/05/06 06:18:26;;;;;;;36.13;21.08;;;;;;;10.31;100.00;97998.34;5005140;28;20133;-70
2022/05/06 06:20:56;;;;;;;31.08;19.60;;;;;;;10.39;99.27;98000.69;4993261;28;20054;-70
2022/05/06 06:23:24;;;;;;;32.42;19.92;;;;;;;10.48;99.30;97998.50;5003580;28;20260;-70
2022/05/06 06:25:57;;;;;;;29.88;19.27;;;;;;;10.39;98.35;98003.38;4994174;28;20046;-66
2022/05/06 06:28:24;;;;;;;30.05;18.30;;;;;;;10.44;98.56;98003.56;4993588;28;20777;-67
2022/05/06 06:30:50;;;;;;;27.73;17.90;;;;;;;10.43;98.03;98004.56;5007355;28;20038;-68
2022/05/06 06:33:18;;;;;;;29.05;19.08;;;;;;;10.34;99.35;98003.28;4996002;28;20042;-69
2022/05/06 06:35:44;;;;;;;28.33;18.08;;;;;;;10.12;98.25;98001.97;5000414;28;20068;-70
2022/05/06 06:38:12;;;;;;;28.20;17.67;;;;;;;10.22;98.38;97998.69;4998770;28;20053;-67
2022/05/06 06:40:42;;;;;;;24.25;16.33;;;;;;;10.38;97.19;98005.28;4998071;28;20145;-71
2022/05/06 06:43:08;;;;;;;26.85;16.33;;;;;;;10.52;95.89;98002.38;5003710;28;20038;-67
2022/05/06 06:46:04;;;;;;;24.10;15.02;;;;;;;10.51;95.19;98012.38;5006539;28;20101;-67
2022/05/06 06:48:42;;;;;;;23.50;15.77;;;;;;;10.64;96.45;98005.91;5000709;28;20069;-74
2022/05/06 06:51:12;;;;;;;21.73;14.90;;;;;;;10.66;93.95;98011.88;5005001;28;20316;-71
2022/05/06 06:53:53;;;;;;;20.73;13.77;;;;;;;10.70;93.50;98012.25;5016044;28;20042;-69
2022/05/06 06:56:21;;;;;;;23.60;15.20;;;;;;;10.68;93.61;98011.66;5008759;28;20038;-70
2022/05/06 06:58:47;;;;;;;25.10;15.30;;;;;;;10.76;94.20;98015.91;4999800;28;20046;-67
2022/05/06 07:01:14;;;;;;;25.15;15.90;;;;;;;10.79;94.32;98013.53;5020197;28;20041;-73
2022/05/06 07:03:41;;;;;;;25.30;16.02;;;;;;;10.85;96.07;98014.47;5009238;28;20045;-68
2022/05/06 07:11:56;;;;;;;20.25;13.05;;;;;;;11.02;91.93;98016.47;5008879;28;20505;-69
2022/05/06 07:14:31;;;;;;;19.23;12.38;;;;;;;11.24;88.99;98021.22;4988427;28;20046;-68
2022/05/06 07:16:57;;;;;;;22.35;13.35;;;;;;;11.28;88.08;98020.50;4990403;28;20493;-67
2022/05/06 07:19:24;;;;;;;20.73;12.30;;;;;;;11.38;87.72;98021.75;4999221;28;20136;-67
2022/05/06 07:21:51;;;;;;;18.70;11.38;;;;;;;11.51;90.21;98026.91;4987690;28;20117;-70
2022/05/06 07:24:19;;;;;;;17.40;11.10;;;;;;;11.56;86.25;98021.59;5003343;28;20048;-70
2022/05/06 07:26:46;;;;;;;15.32;9.80;;;;;;;11.76;83.98;98031.16;5008578;28;20420;-71
2022/05/06 07:29:13;;;;;;;18.10;9.60;;;;;;;11.52;83.29;98030.44;5006345;28;20042;-71
2022/05/06 07:31:41;;;;;;;17.50;8.88;;;;;;;11.88;79.83;98039.25;5008226;28;20049;-64
2022/05/06 07:34:08;;;;;;;14.02;9.20;;;;;;;12.05;79.57;98031.16;5003038;28;20057;-65
2022/05/06 07:36:35;;;;;;;17.45;9.07;;;;;;;11.93;79.50;98038.50;5002651;28;20045;-49
2022/05/06 07:39:02;;;;;;;14.50;8.60;;;;;;;12.07;79.13;98036.34;5005175;28;21304;-51
2022/05/06 07:41:28;;;;;;;14.93;9.65;;;;;;;12.10;79.08;98030.44;4999873;28;20046;-50
2022/05/06 07:43:55;;;;;;;12.95;7.57;;;;;;;11.99;77.18;98032.13;5013169;28;20045;-49
2022/05/06 07:46:25;;;;;;;16.30;8.32;;;;;;;11.97;77.38;98031.53;5005042;28;20046;-64
2022/05/06 07:48:52;;;;;;;14.88;8.93;;;;;;;12.28;77.47;98034.81;4999184;28;20077;-64
2022/05/06 07:51:19;;;;;;;12.20;6.65;;;;;;;12.41;73.86;98033.63;5004051;28;20092;-64
2022/05/06 07:53:45;;;;;;;12.75;6.32;;;;;;;12.75;73.91;98032.75;4996153;28;20042;-64
2022/05/06 07:56:12;;;;;;;11.57;7.50;;;;;;;12.42;76.27;98020.88;5006962;28;20660;-64
2022/05/06 07:58:39;;;;;;;11.18;7.45;;;;;;;12.47;78.00;98024.50;5012088;28;20578;-65
2022/05/06 08:01:07;;;;;;;10.13;6.68;;;;;;;12.73;75.79;98021.34;5023653;28;20598;-64
2022/05/06 08:06:19;;;;;;;10.73;6.40;;;;;;;12.71;73.63;98039.75;5015826;28;20099;-63
2022/05/06 08:08:45;;;;;;;8.73;5.53;;;;;;;12.74;72.92;98036.56;5014640;28;20048;-64
2022/05/06 08:11:12;;;;;;;8.60;5.90;;;;;;;12.90;71.27;98040.31;5006472;28;20038;-64
2022/05/06 08:13:39;;;;;;;8.93;5.30;;;;;;;13.14;68.16;98040.91;5011258;28;20420;-64
2022/05/06 08:16:05;;;;;;;7.07;4.72;;;;;;;13.20;67.46;98036.34;5011057;28;20050;-64
2022/05/06 08:18:32;;;;;;;8.23;5.70;;;;;;;13.32;69.27;98041.69;4998721;28;20046;-64
2022/05/06 08:20:59;;;;;;;7.40;4.82;;;;;;;13.11;69.48;98041.41;5013368;28;20042;-64
2022/05/06 08:23:25;;;;;;;8.77;5.35;;;;;;;13.21;70.33;98048.06;5010363;28;20080;-64
2022/05/06 08:25:53;;;;;;;10.32;5.60;;;;;;;13.46;69.97;98046.72;5007992;28;20046;-64
2022/05/06 08:28:20;;;;;;;8.77;4.82;;;;;;;13.77;68.49;98053.38;5017752;28;20099;-64
2022/05/06 08:30:48;;;;;;;7.63;5.20;;;;;;;14.07;66.24;98056.63;5005798;28;20045;-64
2022/05/06 08:33:16;;;;;;;6.95;4.80;;;;;;;14.40;68.76;98056.66;5005078;28;20092;-64
2022/05/06 08:35:43;;;;;;;12.40;5.18;;;;;;;14.24;65.40;98055.69;4996116;28;20053;-64
2022/05/06 08:38:11;;;;;;;6.72;4.57;;;;;;;13.99;67.69;98055.22;5003266;28;20050;-64
2022/05/06 08:40:38;;;;;;;9.23;4.93;;;;;;;13.84;67.18;98049.59;5002266;28;20472;-64
2022/05/06 08:43:04;;;;;;;8.68;4.65;;;;;;;13.70;67.34;98049.19;5003732;28;20045;-63
2022/05/06 08:51:26;;;;;;;6.80;4.57;;;;;;;14.91;61.86;98056.22;4993654;28;20404;-64
2022/05/06 08:53:54;;;;;;;7.65;6.00;;;;;;;14.16;65.06;98071.41;5006653;28;20420;-63
2022/05/06 08:56:20;;;;;;;10.02;4.63;;;;;;;14.34;63.56;98072.13;5003858;28;20049;-64
2022/05/06 08:58:47;;;;;;;9.73;5.28;;;;;;;14.35;63.86;98062.06;5008548;28;20045;-62
2022/05/06 09:01:16;;;;;;;8.52;5.20;;;;;;;14.34;63.62;98065.88;5000872;28;20405;-61
2022/05/06 09:03:44;;;;;;;10.75;4.85;;;;;;;14.13;64.15;98062.97;5001470;28;20572;-64
2022/05/06 09:06:21;;;;;;;11.50;4.20;;;;;;;14.32;62.67;98068.84;5004727;28;20080;-65
2022/05/06 09:08:51;;;;;;;8.98;4.78;;;;;;;14.34;64.81;98058.50;4997505;28;20137;-63
2022/05/06 09:12:40;;;;;;;7.95;4.60;;;;;;;14.40;61.65;98054.75;5005004;28;20057;-64
2022/05/06 09:14:08;;;;;;;6.93;4.60;;;;;;;14.43;62.40;98065.13;5009313;28;20049;-62
2022/05/06 09:16:40;;;;;;;7.65;4.80;;;;;;;14.80;60.41;98059.97;5000137;28;20045;-63
2022/05/06 09:19:15;;;;;;;9.02;4.68;;;;;;;15.25;61.56;98056.94;5005453;28;20069;-63
2022/05/06 09:22:04;;;;;;;8.82;4.50;;;;;;;14.80;61.66;98059.97;4996992;28;20069;-62
2022/05/06 09:24:32;;;;;;;6.47;4.32;;;;;;;15.17;60.81;98058.25;4999740;28;20569;-63
2022/05/06 09:27:03;;;;;;;7.50;3.95;;;;;;;15.39;59.93;98060.81;5001355;28;20049;-63
2022/05/06 09:29:34;;;;;;;7.60;4.07;;;;;;;15.34;60.95;98060.81;5008695;28;20045;-67
2022/05/06 09:32:19;;;;;;;;;;;;;;;15.40;59.80;98056.19;5004081;28;20037;-64
2022/05/06 09:34:51;;;;;;;8.25;4.18;;;;;;;15.27;60.19;98060.22;5001422;28;20011;-65
2022/05/06 09:37:29;;;;;;;6.70;4.20;;;;;;;15.33;60.06;98053.69;5000913;28;20037;-65
2022/05/06 09:40:08;;;;;;;6.45;3.90;;;;;;;15.30;62.29;98056.97;4991363;28;20045;-63
2022/05/06 09:42:37;;;;;;;9.05;3.97;;;;;;;15.19;59.02;98062.34;5009450;28;20057;-65
2022/05/06 09:45:05;;;;;;;6.80;3.83;;;;;;;15.68;57.61;98054.09;5004909;28;20084;-62
2022/05/06 09:47:34;;;;;;;6.45;4.00;;;;;;;15.82;55.57;98060.66;5004949;28;20465;-62
2022/05/06 09:50:04;;;;;;;5.45;3.20;;;;;;;16.05;55.56;98044.91;5006093;28;20049;-62
2022/05/06 09:52:31;;;;;;;6.53;3.60;;;;;;;16.12;57.23;98056.41;5006611;28;20120;-61
2022/05/06 09:54:58;;;;;;;7.43;3.63;;;;;;;15.48;56.81;98056.47;5006107;28;20041;-64
2022/05/06 09:57:26;;;;;;;5.78;3.40;;;;;;;15.65;55.91;98047.25;4998337;28;20049;-64
2022/05/06 09:59:53;;;;;;;5.80;3.25;;;;;;;15.89;54.65;98054.16;4994748;28;20404;-67
2022/05/06 10:02:19;;;;;;;8.70;3.70;;;;;;;16.34;53.02;98049.03;5000677;28;20052;-66
2022/05/06 10:04:49;;;;;;;6.18;4.00;;;;;;;16.19;55.17;98045.22;5012852;28;20041;-65
2022/05/06 10:07:18;;;;;;;7.93;3.75;;;;;;;16.37;54.38;98041.09;4999654;28;20050;-65
2022/05/06 10:09:52;;;;;;;6.43;3.30;;;;;;;16.24;53.43;98044.38;5000466;28;20500;-65
2022/05/06 10:12:20;;;;;;;5.00;3.20;;;;;;;16.26;54.35;98044.94;5002793;28;20049;-65
2022/05/06 10:14:47;;;;;;;5.97;3.25;;;;;;;16.24;53.07;98041.66;5015871;28;20044;-65
2022/05/06 10:17:49;;;;;;;6.90;3.58;;;;;;;16.34;52.70;98043.56;4999020;28;20038;-63
2022/05/06 10:20:33;;;;;;;8.63;3.25;;;;;;;16.21;52.13;98047.66;5002013;28;20416;-64
2022/05/06 10:23:02;;;;;;;8.95;3.78;;;;;;;16.62;51.26;98038.63;4997200;28;20496;-65
2022/05/06 10:25:41;;;;;;;7.13;3.50;;;;;;;16.28;50.50;98039.22;4988222;28;20109;-65
2022/05/06 10:34:08;;;;;;;6.38;3.20;;;;;;;16.46;50.38;98048.75;4999404;28;20080;-67
2022/05/06 10:36:48;;;;;;;5.97;2.67;;;;;;;16.77;48.61;98046.00;5004032;28;20046;-65
2022/05/06 10:39:17;;;;;;;6.65;3.10;;;;;;;16.59;49.69;98036.44;4993339;28;20041;-63
2022/05/06 10:42:11;;;;;;;4.93;2.55;;;;;;;16.98;47.08;98029.53;5002974;28;20053;-64
2022/05/06 10:44:39;;;;;;;6.88;2.90;;;;;;;16.83;47.95;98031.22;4995361;28;20285;-64
2022/05/06 10:47:11;;;;;;;5.10;2.58;;;;;;;17.19;48.42;98035.78;5000096;28;20116;-64
2022/05/06 10:49:37;;;;;;;3.88;2.05;;;;;;;17.38;46.53;98036.00;5000717;28;20041;-64
2022/05/06 10:52:20;;;;;;;4.18;2.22;;;;;;;17.13;48.06;98037.72;5001774;28;20046;-64
2022/05/06 10:55:03;;;;;;;5.32;2.53;;;;;;;17.43;47.08;98029.66;5010146;28;20064;-63
2022/05/06 10:57:31;;;;;;;4.68;2.05;;;;;;;17.31;47.83;98031.94;5017806;28;20053;-65
2022/05/06 11:00:00;;;;;;;5.68;2.28;;;;;;;17.26;46.12;98030.84;4999480;28;20049;-65
2022/05/06 11:02:30;;;;;;;4.75;2.33;;;;;;;17.47;45.16;98030.72;5009315;28;20137;-64
2022/05/06 11:04:58;;;;;;;5.55;2.38;;;;;;;17.70;45.21;98030.34;5004576;28;20559;-65
2022/05/06 11:07:27;;;;;;;5.38;2.78;;;;;;;17.93;43.94;98034.31;5012326;28;20121;-65
2022/05/06 11:09:54;;;;;;;6.15;2.40;;;;;;;18.24;44.10;98025.91;5002468;28;20108;-65
2022/05/06 11:12:40;;;;;;;5.65;2.30;;;;;;;18.36;44.55;98025.53;4999279;28;20038;-64
2022/05/06 11:15:09;;;;;;;3.60;1.90;;;;;;;18.32;42.95;98030.75;5002008;28;20045;-65
2022/05/06 11:17:36;;;;;;;4.80;1.90;;;;;;;17.87;43.09;98024.50;4999221;28;20073;-65
2022/05/06 11:20:22;;;;;;;3.60;1.75;;;;;;;18.15;42.66;98025.69;5009955;28;20090;-65
2022/05/06 11:22:55;;;;;;;5.00;2.38;;;;;;;17.81;42.93;98040.94;4999295;28;20092;-65
2022/05/06 11:25:23;;;;;;;6.85;2.40;;;;;;;18.11;42.58;98032.84;5000288;28;20100;-65
2022/05/06 11:27:54;;;;;;;5.55;2.28;;;;;;;18.23;41.54;98032.50;5015307;28;20050;-64
2022/05/06 11:30:23;;;;;;;5.70;2.30;;;;;;;18.03;42.03;98030.69;4984050;28;20113;-65
2022/05/06 11:32:58;;;;;;;3.47;2.05;;;;;;;17.65;43.33;98022.97;4990137;28;20514;-65
2022/05/06 11:35:29;;;;;;;5.35;2.35;;;;;;;17.65;42.74;98033.94;5008623;28;20495;-62
2022/05/06 11:37:55;;;;;;;4.85;2.22;;;;;;;17.63;43.67;98031.50;5004387;28;20536;-64
2022/05/06 11:42:57;;;;;;;5.57;3.15;;;;;;;17.67;43.67;98029.00;5013583;28;20120;-62
2022/05/06 11:48:11;;;;;;;5.20;2.80;;;;;;;18.22;42.15;98022.63;5005033;28;20556;-69
2022/05/06 11:50:42;;;;;;;4.18;2.55;;;;;;;17.96;42.30;98028.28;5006679;28;21387;-67
2022/05/06 11:53:11;;;;;;;7.03;2.60;;;;;;;18.32;41.78;98025.28;5007679;28;20500;-64
2022/05/06 11:55:41;;;;;;;5.15;2.60;;;;;;;17.76;42.88;98031.97;4995205;28;20523;-64
2022/05/06 11:58:12;;;;;;;6.70;2.60;;;;;;;17.65;42.92;98023.81;5006983;28;20042;-65
2022/05/06 12:00:40;;;;;;;4.43;2.30;;;;;;;17.97;43.09;98029.91;4996571;28;20053;-64
2022/05/06 12:03:08;;;;;;;6.93;3.30;;;;;;;18.51;40.67;98023.75;4998875;28;20091;-68
2022/05/06 12:05:36;;;;;;;9.32;2.58;;;;;;;18.01;42.19;98033.72;5012075;28;20624;-63
2022/05/06 12:08:03;;;;;;;4.55;2.72;;;;;;;17.73;43.32;98025.13;5008422;28;20049;-63
2022/05/06 12:10:37;;;;;;;4.85;2.33;;;;;;;18.46;42.02;98027.34;5010583;28;20038;-64
2022/05/06 12:13:07;;;;;;;4.30;2.17;;;;;;;18.07;41.93;98027.09;5001704;28;20110;-63
2022/05/06 12:15:37;;;;;;;5.72;2.35;;;;;;;18.34;41.44;98025.00;5006025;28;20049;-64
2022/05/06 12:18:05;;;;;;;5.00;2.40;;;;;;;18.53;41.57;98027.84;5001378;28;20088;-62